sensor_id;sensor_type;location;lat;lon;timestamp;P1;durP1;ratioP1;P2;durP2;ratioP2
12288;SDS011;6207;49.308;7.336;2022-07-22T05:16:15;14.88;;;13.52;;
12288;SDS011;6207;49.308;7.336;2022-07-22T05:18:42;14.77;;;13.68;;
12288;SDS011;6207;49.308;7.336;2022-07-22T05:21:08;14.98;;;13.88;;
12288;SDS011;6207;49.308;7.336;2022-07-22T05:23:35;15.65;;;14.35;;
12288;SDS011;6207;49.308;7.336;2022-07-22T05:26:03;14.63;;;13.50;;
12288;SDS011;6207;49.308;7.336;2022-07-22T05:28:31;14.68;;;13.30;;
12288;SDS011;6207;49.308;7.336;2022-07-22T05:30:58;14.15;;;13.05;;
12288;SDS011;6207;49.308;7.336;2022-07-22T05:33:25;15.20;;;13.95;;
12288;SDS011;6207;49.308;7.336;2022-07-22T05:35:52;14.65;;;13.45;;
12288;SDS011;6207;49.308;7.336;2022-07-22T05:38:19;15.38;;;13.95;;
12288;SDS011;6207;49.308;7.336;2022-07-22T05:40:45;14.60;;;13.30;;
12288;SDS011;6207;49.308;7.336;2022-07-22T05:43:12;14.50;;;13.27;;
12288;SDS011;6207;49.308;7.336;2022-07-22T05:45:39;15.05;;;13.77;;
12288;SDS011;6207;49.308;7.336;2022-07-22T05:48:06;14.75;;;13.55;;
12288;SDS011;6207;49.308;7.336;2022-07-22T05:50:33;15.43;;;14.13;;
12288;SDS011;6207;49.308;7.336;2022-07-22T05:53:01;15.27;;;13.85;;
12288;SDS011;6207;49.308;7.336;2022-07-22T05:55:31;13.93;;;12.93;;
12288;SDS011;6207;49.308;7.336;2022-07-22T05:57:58;14.90;;;13.63;;
12288;SDS011;6207;49.308;7.336;2022-07-22T06:00:24;15.07;;;13.95;;
12288;SDS011;6207;49.308;7.336;2022-07-22T06:02:51;14.40;;;13.10;;
12288;SDS011;6207;49.308;7.336;2022-07-22T06:05:18;14.45;;;13.20;;
12288;SDS011;6207;49.308;7.336;2022-07-22T06:08:02;14.00;;;13.00;;
12288;SDS011;6207;49.308;7.336;2022-07-22T06:10:29;14.40;;;13.27;;
12288;SDS011;6207;49.308;7.336;2022-07-22T06:12:56;14.15;;;12.82;;
12288;SDS011;6207;49.308;7.336;2022-07-22T06:15:23;14.20;;;12.80;;
12288;SDS011;6207;49.308;7.336;2022-07-22T06:17:52;14.90;;;13.60;;
12288;SDS011;6207;49.308;7.336;2022-07-22T06:20:19;14.23;;;12.95;;
12288;SDS011;6207;49.308;7.336;2022-07-22T06:22:46;13.88;;;12.77;;
12288;SDS011;6207;49.308;7.336;2022-07-22T06:25:13;13.10;;;12.10;;
12288;SDS011;6207;49.308;7.336;2022-07-22T06:28:00;13.00;;;11.95;;
12288;SDS011;6207;49.308;7.336;2022-07-22T06:30:27;13.57;;;12.55;;
12288;SDS011;6207;49.308;7.336;2022-07-22T06:32:54;13.25;;;12.30;;
12288;SDS011;6207;49.308;7.336;2022-07-22T06:35:22;13.07;;;11.98;;
12288;SDS011;6207;49.308;7.336;2022-07-22T06:37:51;13.68;;;12.57;;
12288;SDS011;6207;49.308;7.336;2022-07-22T06:40:30;13.18;;;12.10;;
12288;SDS011;6207;49.308;7.336;2022-07-22T06:42:58;13.40;;;12.10;;
12288;SDS011;6207;49.308;7.336;2022-07-22T06:45:25;14.40;;;13.07;;
12288;SDS011;6207;49.308;7.336;2022-07-22T06:47:51;12.93;;;11.65;;
12288;SDS011;6207;49.308;7.336;2022-07-22T06:50:18;13.15;;;12.10;;
12288;SDS011;6207;49.308;7.336;2022-07-22T06:52:45;13.10;;;12.10;;
12288;SDS011;6207;49.308;7.336;2022-07-22T06:55:12;13.73;;;12.63;;
12288;SDS011;6207;49.308;7.336;2022-07-22T06:57:39;14.05;;;12.95;;
12288;SDS011;6207;49.308;7.336;2022-07-22T07:00:09;13.48;;;12.27;;
12288;SDS011;6207;49.308;7.336;2022-07-22T07:02:38;12.38;;;11.38;;
12288;SDS011;6207;49.308;7.336;2022-07-22T07:05:18;13.90;;;12.73;;
12288;SDS011;6207;49.308;7.336;2022-07-22T07:08:09;13.25;;;12.15;;
12288;SDS011;6207;49.308;7.336;2022-07-22T07:10:42;13.82;;;12.55;;
12288;SDS011;6207;49.308;7.336;2022-07-22T07:13:14;12.85;;;11.85;;
12288;SDS011;6207;49.308;7.336;2022-07-22T07:15:42;13.10;;;12.10;;
12288;SDS011;6207;49.308;7.336;2022-07-22T07:18:10;13.38;;;12.30;;
12288;SDS011;6207;49.308;7.336;2022-07-22T07:20:38;13.20;;;12.10;;
12288;SDS011;6207;49.308;7.336;2022-07-22T07:23:07;13.82;;;12.48;;
12288;SDS011;6207;49.308;7.336;2022-07-22T07:25:37;12.93;;;11.90;;
12288;SDS011;6207;49.308;7.336;2022-07-22T07:28:26;13.07;;;12.05;;
12288;SDS011;6207;49.308;7.336;2022-07-22T07:35:08;13.45;;;12.38;;
12288;SDS011;6207;49.308;7.336;2022-07-22T10:45:42;13.10;;;12.10;;
12288;SDS011;6207;49.308;7.336;2022-07-22T10:48:25;12.63;;;11.82;;
12288;SDS011;6207;49.308;7.336;2022-07-22T10:51:04;13.55;;;12.48;;
12288;SDS011;6207;49.308;7.336;2022-07-22T10:53:44;12.50;;;11.75;;
12288;SDS011;6207;49.308;7.336;2022-07-22T10:58:48;12.57;;;11.88;;
12288;SDS011;6207;49.308;7.336;2022-07-22T11:01:21;13.45;;;12.45;;
12288;SDS011;6207;49.308;7.336;2022-07-22T11:03:50;13.38;;;12.27;;
12288;SDS011;6207;49.308;7.336;2022-07-22T11:06:25;13.20;;;12.30;;
12288;SDS011;6207;49.308;7.336;2022-07-22T11:09:01;12.95;;;12.05;;
12288;SDS011;6207;49.308;7.336;2022-07-22T11:11:33;13.10;;;12.20;;
12288;SDS011;6207;49.308;7.336;2022-07-22T11:14:11;13.15;;;12.30;;
12288;SDS011;6207;49.308;7.336;2022-07-22T11:16:38;14.02;;;12.85;;
12288;SDS011;6207;49.308;7.336;2022-07-22T11:19:05;13.43;;;12.43;;
12288;SDS011;6207;49.308;7.336;2022-07-22T11:21:37;12.77;;;11.88;;
12288;SDS011;6207;49.308;7.336;2022-07-22T11:24:11;12.88;;;11.93;;
12288;SDS011;6207;49.308;7.336;2022-07-22T11:26:46;13.13;;;12.13;;
12288;SDS011;6207;49.308;7.336;2022-07-22T11:29:35;12.70;;;11.75;;
12288;SDS011;6207;49.308;7.336;2022-07-22T11:32:43;12.88;;;11.98;;
12288;SDS011;6207;49.308;7.336;2022-07-22T11:35:11;12.35;;;11.50;;
12288;SDS011;6207;49.308;7.336;2022-07-22T11:37:40;12.73;;;11.75;;
12288;SDS011;6207;49.308;7.336;2022-07-22T11:40:09;12.63;;;11.80;;
12288;SDS011;6207;49.308;7.336;2022-07-22T11:43:45;13.00;;;12.10;;
12288;SDS011;6207;49.308;7.336;2022-07-22T11:46:19;12.15;;;11.35;;
12288;SDS011;6207;49.308;7.336;2022-07-22T11:49:04;12.50;;;11.60;;
12288;SDS011;6207;49.308;7.336;2022-07-22T11:51:32;12.80;;;11.80;;
12288;SDS011;6207;49.308;7.336;2022-07-22T11:54:03;14.70;;;12.63;;
12288;SDS011;6207;49.308;7.336;2022-07-22T11:56:32;14.25;;;12.27;;
12288;SDS011;6207;49.308;7.336;2022-07-22T11:59:00;12.77;;;11.98;;
12288;SDS011;6207;49.308;7.336;2022-07-22T12:01:32;12.18;;;11.38;;
12288;SDS011;6207;49.308;7.336;2022-07-22T12:04:37;12.60;;;11.80;;
12288;SDS011;6207;49.308;7.336;2022-07-22T12:12:47;12.63;;;11.77;;
12288;SDS011;6207;49.308;7.336;2022-07-22T12:15:17;12.20;;;11.50;;
12288;SDS011;6207;49.308;7.336;2022-07-22T12:18:23;12.45;;;11.55;;
12288;SDS011;6207;49.308;7.336;2022-07-22T12:21:49;12.55;;;11.75;;
12288;SDS011;6207;49.308;7.336;2022-07-22T12:25:28;13.18;;;12.18;;
12288;SDS011;6207;49.308;7.336;2022-07-22T12:27:59;12.00;;;11.10;;
12288;SDS011;6207;49.308;7.336;2022-07-22T12:30:29;12.38;;;11.38;;
12288;SDS011;6207;49.308;7.336;2022-07-22T12:32:57;13.02;;;12.13;;
12288;SDS011;6207;49.308;7.336;2022-07-22T12:35:27;12.38;;;11.57;;
12288;SDS011;6207;49.308;7.336;2022-07-22T12:37:56;12.27;;;11.48;;
12288;SDS011;6207;49.308;7.336;2022-07-22T12:40:44;12.75;;;11.75;;
12288;SDS011;6207;49.308;7.336;2022-07-22T12:47:00;12.30;;;11.50;;
12288;SDS011;6207;49.308;7.336;2022-07-22T12:50:00;13.00;;;12.10;;
12288;SDS011;6207;49.308;7.336;2022-07-22T12:55:49;12.40;;;11.60;;
12288;SDS011;6207;49.308;7.336;2022-07-22T14:27:16;12.90;;;11.98;;
12288;SDS011;6207;49.308;7.336;2022-07-22T14:29:43;12.18;;;11.43;;
12288;SDS011;6207;49.308;7.336;2022-07-22T14:32:10;12.65;;;11.75;;
12288;SDS011;6207;49.308;7.336;2022-07-22T14:34:37;12.93;;;12.02;;
12288;SDS011;6207;49.308;7.336;2022-07-22T14:37:04;12.98;;;12.07;;
12288;SDS011;6207;49.308;7.336;2022-07-22T14:39:30;12.60;;;11.75;;
12288;SDS011;6207;49.308;7.336;2022-07-22T14:41:57;12.80;;;11.90;;
12288;SDS011;6207;49.308;7.336;2022-07-22T14:44:25;12.13;;;11.32;;
12288;SDS011;6207;49.308;7.336;2022-07-22T14:46:52;12.50;;;11.63;;
12288;SDS011;6207;49.308;7.336;2022-07-22T14:49:19;11.93;;;11.23;;
12288;SDS011;6207;49.308;7.336;2022-07-22T14:51:45;12.10;;;11.30;;
12288;SDS011;6207;49.308;7.336;2022-07-22T14:54:12;11.73;;;11.02;;
12288;SDS011;6207;49.308;7.336;2022-07-22T14:56:39;12.52;;;11.63;;
12288;SDS011;6207;49.308;7.336;2022-07-22T14:59:16;12.68;;;11.68;;
12288;SDS011;6207;49.308;7.336;2022-07-22T15:01:44;12.60;;;11.80;;
12288;SDS011;6207;49.308;7.336;2022-07-22T15:04:23;12.55;;;11.75;;
12288;SDS011;6207;49.308;7.336;2022-07-22T15:06:54;12.95;;;12.15;;
12288;SDS011;6207;49.308;7.336;2022-07-22T15:09:36;13.05;;;12.13;;
12288;SDS011;6207;49.308;7.336;2022-07-22T15:12:06;12.43;;;11.68;;
12288;SDS011;6207;49.308;7.336;2022-07-22T15:14:53;12.18;;;11.38;;
12288;SDS011;6207;49.308;7.336;2022-07-22T15:17:20;13.23;;;12.02;;
12288;SDS011;6207;49.308;7.336;2022-07-22T15:19:46;12.70;;;11.90;;
12288;SDS011;6207;49.308;7.336;2022-07-22T15:22:13;12.90;;;12.07;;
12288;SDS011;6207;49.308;7.336;2022-07-22T15:24:42;12.13;;;11.30;;
12288;SDS011;6207;49.308;7.336;2022-07-22T15:27:12;12.80;;;12.00;;
12288;SDS011;6207;49.308;7.336;2022-07-22T15:29:39;12.98;;;12.07;;
12288;SDS011;6207;49.308;7.336;2022-07-22T15:32:06;13.63;;;12.73;;
12288;SDS011;6207;49.308;7.336;2022-07-22T15:34:33;12.57;;;11.73;;
12288;SDS011;6207;49.308;7.336;2022-07-22T15:37:00;12.75;;;11.95;;
12288;SDS011;6207;49.308;7.336;2022-07-22T15:39:27;13.43;;;12.52;;
12288;SDS011;6207;49.308;7.336;2022-07-22T15:41:53;12.85;;;12.05;;
12288;SDS011;6207;49.308;7.336;2022-07-22T15:44:20;12.48;;;11.65;;
12288;SDS011;6207;49.308;7.336;2022-07-22T15:46:47;12.88;;;12.07;;
12288;SDS011;6207;49.308;7.336;2022-07-22T15:49:14;12.95;;;12.05;;
12288;SDS011;6207;49.308;7.336;2022-07-22T15:51:41;13.02;;;12.15;;
12288;SDS011;6207;49.308;7.336;2022-07-22T15:54:08;12.60;;;11.82;;
12288;SDS011;6207;49.308;7.336;2022-07-22T15:56:35;13.32;;;12.50;;
12288;SDS011;6207;49.308;7.336;2022-07-22T15:59:02;13.93;;;12.77;;
12288;SDS011;6207;49.308;7.336;2022-07-22T16:01:55;13.52;;;12.73;;
12288;SDS011;6207;49.308;7.336;2022-07-22T16:04:23;13.35;;;12.45;;
12288;SDS011;6207;49.308;7.336;2022-07-22T16:06:53;12.88;;;12.05;;
12288;SDS011;6207;49.308;7.336;2022-07-22T16:09:24;12.77;;;11.98;;
12288;SDS011;6207;49.308;7.336;2022-07-22T16:11:53;13.07;;;12.07;;
12288;SDS011;6207;49.308;7.336;2022-07-22T16:14:23;13.00;;;11.90;;
12288;SDS011;6207;49.308;7.336;2022-07-22T16:16:50;12.90;;;12.00;;
12288;SDS011;6207;49.308;7.336;2022-07-22T16:19:17;12.50;;;11.60;;
12288;SDS011;6207;49.308;7.336;2022-07-22T16:21:43;12.60;;;11.80;;
12288;SDS011;6207;49.308;7.336;2022-07-22T16:24:11;12.80;;;11.93;;
12288;SDS011;6207;49.308;7.336;2022-07-22T16:26:41;12.23;;;11.27;;
12288;SDS011;6207;49.308;7.336;2022-07-22T16:29:08;11.75;;;11.05;;
12288;SDS011;6207;49.308;7.336;2022-07-22T16:31:34;12.48;;;11.57;;
12288;SDS011;6207;49.308;7.336;2022-07-22T16:34:01;11.88;;;11.18;;
12288;SDS011;6207;49.308;7.336;2022-07-22T16:36:31;12.63;;;11.70;;
12288;SDS011;6207;49.308;7.336;2022-07-22T16:38:58;12.20;;;11.40;;
12288;SDS011;6207;49.308;7.336;2022-07-22T16:41:28;13.27;;;12.38;;
12288;SDS011;6207;49.308;7.336;2022-07-22T16:43:55;12.98;;;12.07;;
12288;SDS011;6207;49.308;7.336;2022-07-22T16:46:22;12.82;;;12.13;;
12288;SDS011;6207;49.308;7.336;2022-07-22T16:48:49;12.60;;;11.63;;
12288;SDS011;6207;49.308;7.336;2022-07-22T16:51:16;12.75;;;11.95;;
12288;SDS011;6207;49.308;7.336;2022-07-22T16:53:46;12.90;;;12.10;;
12288;SDS011;6207;49.308;7.336;2022-07-22T16:56:13;13.60;;;12.80;;
12288;SDS011;6207;49.308;7.336;2022-07-22T16:58:39;12.68;;;11.80;;
12288;SDS011;6207;49.308;7.336;2022-07-22T17:01:10;12.98;;;12.18;;
12288;SDS011;6207;49.308;7.336;2022-07-22T17:03:37;13.95;;;12.95;;
12288;SDS011;6207;49.308;7.336;2022-07-22T17:06:04;14.68;;;13.20;;
12288;SDS011;6207;49.308;7.336;2022-07-22T17:08:31;13.70;;;12.80;;
12288;SDS011;6207;49.308;7.336;2022-07-22T17:10:58;14.45;;;13.45;;
12288;SDS011;6207;49.308;7.336;2022-07-22T17:13:25;14.07;;;13.18;;
12288;SDS011;6207;49.308;7.336;2022-07-22T17:15:54;13.73;;;12.63;;
12288;SDS011;6207;49.308;7.336;2022-07-22T17:18:22;13.32;;;12.43;;
12288;SDS011;6207;49.308;7.336;2022-07-22T17:20:50;13.68;;;12.77;;
12288;SDS011;6207;49.308;7.336;2022-07-22T17:23:17;14.05;;;13.05;;
12288;SDS011;6207;49.308;7.336;2022-07-22T17:25:44;14.43;;;13.32;;
12288;SDS011;6207;49.308;7.336;2022-07-22T17:28:11;13.02;;;12.18;;
12288;SDS011;6207;49.308;7.336;2022-07-22T17:30:37;13.80;;;12.75;;
12288;SDS011;6207;49.308;7.336;2022-07-22T17:33:04;13.68;;;12.68;;
12288;SDS011;6207;49.308;7.336;2022-07-22T17:35:59;13.32;;;12.38;;
12288;SDS011;6207;49.308;7.336;2022-07-22T17:38:26;13.52;;;12.32;;
12288;SDS011;6207;49.308;7.336;2022-07-22T17:40:53;13.88;;;12.98;;
12288;SDS011;6207;49.308;7.336;2022-07-22T17:43:35;13.70;;;12.82;;
12288;SDS011;6207;49.308;7.336;2022-07-22T17:46:07;13.48;;;12.48;;
12288;SDS011;6207;49.308;7.336;2022-07-22T17:48:34;14.07;;;13.07;;
12288;SDS011;6207;49.308;7.336;2022-07-22T17:51:04;12.93;;;12.02;;
12288;SDS011;6207;49.308;7.336;2022-07-22T17:53:32;13.73;;;12.73;;
12288;SDS011;6207;49.308;7.336;2022-07-22T17:56:07;13.80;;;12.80;;
12288;SDS011;6207;49.308;7.336;2022-07-22T17:58:58;12.60;;;11.80;;
12288;SDS011;6207;49.308;7.336;2022-07-22T18:01:37;12.80;;;11.93;;
12288;SDS011;6207;49.308;7.336;2022-07-22T18:04:11;12.43;;;11.60;;
12288;SDS011;6207;49.308;7.336;2022-07-22T18:06:38;12.45;;;11.60;;
12288;SDS011;6207;49.308;7.336;2022-07-22T18:09:04;12.23;;;11.50;;
12288;SDS011;6207;49.308;7.336;2022-07-22T18:11:31;13.23;;;12.32;;
12288;SDS011;6207;49.308;7.336;2022-07-22T18:13:58;13.07;;;12.20;;
12288;SDS011;6207;49.308;7.336;2022-07-22T18:16:26;13.20;;;12.23;;
12288;SDS011;6207;49.308;7.336;2022-07-22T18:18:53;12.93;;;12.05;;
12288;SDS011;6207;49.308;7.336;2022-07-22T18:21:20;12.63;;;11.82;;
12288;SDS011;6207;49.308;7.336;2022-07-22T18:23:46;13.18;;;12.27;;
12288;SDS011;6207;49.308;7.336;2022-07-22T18:26:13;13.23;;;12.43;;
12288;SDS011;6207;49.308;7.336;2022-07-22T18:28:40;13.50;;;12.50;;
12288;SDS011;6207;49.308;7.336;2022-07-22T18:31:08;13.38;;;12.40;;
12288;SDS011;6207;49.308;7.336;2022-07-22T18:33:35;13.63;;;12.60;;
12288;SDS011;6207;49.308;7.336;2022-07-22T18:36:06;13.10;;;12.18;;
12288;SDS011;6207;49.308;7.336;2022-07-22T18:38:34;13.18;;;12.25;;
12288;SDS011;6207;49.308;7.336;2022-07-22T18:41:02;12.68;;;11.82;;
12288;SDS011;6207;49.308;7.336;2022-07-22T18:43:29;12.93;;;12.02;;
12288;SDS011;6207;49.308;7.336;2022-07-22T18:45:55;13.57;;;12.68;;
12288;SDS011;6207;49.308;7.336;2022-07-22T18:48:22;13.20;;;12.30;;
12288;SDS011;6207;49.308;7.336;2022-07-22T18:50:49;13.32;;;12.10;;
12288;SDS011;6207;49.308;7.336;2022-07-22T18:53:19;13.38;;;12.27;;
12288;SDS011;6207;49.308;7.336;2022-07-22T18:55:46;12.63;;;11.82;;
12288;SDS011;6207;49.308;7.336;2022-07-22T18:58:13;12.70;;;11.80;;
12288;SDS011;6207;49.308;7.336;2022-07-22T19:00:39;12.95;;;11.82;;
12288;SDS011;6207;49.308;7.336;2022-07-22T19:03:06;12.98;;;12.18;;
12288;SDS011;6207;49.308;7.336;2022-07-22T19:05:33;14.07;;;13.13;;
12288;SDS011;6207;49.308;7.336;2022-07-22T19:08:00;13.32;;;12.43;;
12288;SDS011;6207;49.308;7.336;2022-07-22T19:10:27;13.88;;;12.88;;
12288;SDS011;6207;49.308;7.336;2022-07-22T19:12:53;14.23;;;13.18;;
12288;SDS011;6207;49.308;7.336;2022-07-22T19:15:20;14.50;;;13.48;;
12288;SDS011;6207;49.308;7.336;2022-07-22T19:17:47;13.73;;;12.70;;
12288;SDS011;6207;49.308;7.336;2022-07-22T19:20:14;13.13;;;12.23;;
12288;SDS011;6207;49.308;7.336;2022-07-22T19:22:41;13.55;;;12.60;;
12288;SDS011;6207;49.308;7.336;2022-07-22T19:25:08;13.77;;;12.85;;
12288;SDS011;6207;49.308;7.336;2022-07-22T19:27:35;13.43;;;12.52;;
12288;SDS011;6207;49.308;7.336;2022-07-22T19:30:03;13.35;;;12.35;;
12288;SDS011;6207;49.308;7.336;2022-07-22T19:32:30;12.93;;;12.02;;
12288;SDS011;6207;49.308;7.336;2022-07-22T19:34:57;13.52;;;12.52;;
12288;SDS011;6207;49.308;7.336;2022-07-22T19:37:24;13.35;;;12.45;;
12288;SDS011;6207;49.308;7.336;2022-07-22T19:39:53;13.60;;;12.60;;
12288;SDS011;6207;49.308;7.336;2022-07-22T19:42:20;13.63;;;12.63;;
12288;SDS011;6207;49.308;7.336;2022-07-22T19:44:48;14.00;;;13.00;;
12288;SDS011;6207;49.308;7.336;2022-07-22T19:47:15;13.65;;;12.75;;
12288;SDS011;6207;49.308;7.336;2022-07-22T19:49:47;12.93;;;12.13;;
12288;SDS011;6207;49.308;7.336;2022-07-22T19:52:14;14.15;;;13.07;;
12288;SDS011;6207;49.308;7.336;2022-07-22T19:54:41;14.52;;;13.50;;
12288;SDS011;6207;49.308;7.336;2022-07-22T19:57:08;15.48;;;14.25;;
12288;SDS011;6207;49.308;7.336;2022-07-22T19:59:35;13.73;;;12.68;;
12288;SDS011;6207;49.308;7.336;2022-07-22T20:02:01;13.73;;;12.73;;
12288;SDS011;6207;49.308;7.336;2022-07-22T20:04:29;13.15;;;12.35;;
12288;SDS011;6207;49.308;7.336;2022-07-22T20:06:57;14.00;;;13.02;;
12288;SDS011;6207;49.308;7.336;2022-07-22T20:12:52;13.98;;;13.02;;
12288;SDS011;6207;49.308;7.336;2022-07-22T20:16:05;13.82;;;12.82;;
12288;SDS011;6207;49.308;7.336;2022-07-22T20:18:33;14.55;;;13.55;;
12288;SDS011;6207;49.308;7.336;2022-07-22T20:21:00;14.18;;;13.20;;
12288;SDS011;6207;49.308;7.336;2022-07-22T20:23:52;14.07;;;13.13;;
12288;SDS011;6207;49.308;7.336;2022-07-22T20:26:33;13.95;;;12.98;;
12288;SDS011;6207;49.308;7.336;2022-07-22T20:29:03;13.73;;;12.77;;
12288;SDS011;6207;49.308;7.336;2022-07-22T20:31:34;13.82;;;12.73;;
12288;SDS011;6207;49.308;7.336;2022-07-22T20:34:28;13.43;;;12.40;;
12288;SDS011;6207;49.308;7.336;2022-07-22T20:36:58;14.15;;;13.05;;
12288;SDS011;6207;49.308;7.336;2022-07-22T20:39:26;13.40;;;12.50;;
12288;SDS011;6207;49.308;7.336;2022-07-22T20:41:54;13.50;;;12.43;;
12288;SDS011;6207;49.308;7.336;2022-07-22T20:44:42;13.88;;;12.90;;
12288;SDS011;6207;49.308;7.336;2022-07-22T20:47:09;14.65;;;13.63;;
12288;SDS011;6207;49.308;7.336;2022-07-22T20:49:38;14.48;;;13.38;;
12288;SDS011;6207;49.308;7.336;2022-07-22T20:52:08;14.25;;;13.25;;
12288;SDS011;6207;49.308;7.336;2022-07-22T20:54:35;14.13;;;12.95;;
12288;SDS011;6207;49.308;7.336;2022-07-22T20:57:02;14.20;;;13.15;;
12288;SDS011;6207;49.308;7.336;2022-07-22T20:59:29;14.07;;;13.00;;
12288;SDS011;6207;49.308;7.336;2022-07-22T21:01:56;15.93;;;14.63;;
12288;SDS011;6207;49.308;7.336;2022-07-22T21:04:34;14.60;;;13.50;;
12288;SDS011;6207;49.308;7.336;2022-07-22T21:07:02;13.50;;;12.60;;
12288;SDS011;6207;49.308;7.336;2022-07-22T21:09:35;15.27;;;14.05;;
12288;SDS011;6207;49.308;7.336;2022-07-22T21:12:03;15.10;;;13.98;;
12288;SDS011;6207;49.308;7.336;2022-07-22T21:14:30;15.25;;;14.02;;
12288;SDS011;6207;49.308;7.336;2022-07-22T21:16:57;13.73;;;12.65;;
12288;SDS011;6207;49.308;7.336;2022-07-22T21:19:24;14.23;;;13.18;;
12288;SDS011;6207;49.308;7.336;2022-07-22T21:21:53;13.35;;;12.43;;
12288;SDS011;6207;49.308;7.336;2022-07-22T21:24:20;13.60;;;12.65;;
12288;SDS011;6207;49.308;7.336;2022-07-22T21:26:47;13.18;;;12.13;;
12288;SDS011;6207;49.308;7.336;2022-07-22T21:29:14;14.20;;;13.20;;
12288;SDS011;6207;49.308;7.336;2022-07-22T21:31:42;13.90;;;12.90;;
12288;SDS011;6207;49.308;7.336;2022-07-22T21:34:09;14.63;;;13.55;;
12288;SDS011;6207;49.308;7.336;2022-07-22T21:36:36;15.10;;;13.90;;
12288;SDS011;6207;49.308;7.336;2022-07-22T21:39:03;13.75;;;12.85;;
12288;SDS011;6207;49.308;7.336;2022-07-22T21:41:30;13.82;;;12.75;;
12288;SDS011;6207;49.308;7.336;2022-07-22T21:43:57;13.80;;;12.80;;
12288;SDS011;6207;49.308;7.336;2022-07-22T21:46:25;13.98;;;12.98;;
12288;SDS011;6207;49.308;7.336;2022-07-22T21:48:51;14.32;;;13.32;;
12288;SDS011;6207;49.308;7.336;2022-07-22T21:51:21;13.98;;;12.98;;
12288;SDS011;6207;49.308;7.336;2022-07-22T21:53:48;13.80;;;12.80;;
12288;SDS011;6207;49.308;7.336;2022-07-22T21:56:15;14.40;;;13.30;;
12288;SDS011;6207;49.308;7.336;2022-07-22T21:59:00;13.93;;;12.80;;
12288;SDS011;6207;49.308;7.336;2022-07-22T22:01:29;13.82;;;12.82;;
12288;SDS011;6207;49.308;7.336;2022-07-22T22:03:57;13.98;;;12.88;;
12288;SDS011;6207;49.308;7.336;2022-07-22T22:06:25;13.63;;;12.63;;
12288;SDS011;6207;49.308;7.336;2022-07-22T22:08:52;14.25;;;13.18;;
12288;SDS011;6207;49.308;7.336;2022-07-22T22:11:19;13.55;;;12.55;;
12288;SDS011;6207;49.308;7.336;2022-07-22T22:13:45;14.48;;;13.18;;
12288;SDS011;6207;49.308;7.336;2022-07-22T22:16:12;14.23;;;13.15;;
12288;SDS011;6207;49.308;7.336;2022-07-22T22:18:39;13.82;;;12.82;;
12288;SDS011;6207;49.308;7.336;2022-07-22T22:21:06;13.82;;;12.93;;
12288;SDS011;6207;49.308;7.336;2022-07-22T22:23:33;13.93;;;12.93;;
12288;SDS011;6207;49.308;7.336;2022-07-22T22:26:00;13.65;;;12.63;;
12288;SDS011;6207;49.308;7.336;2022-07-22T22:28:27;14.75;;;13.52;;
12288;SDS011;6207;49.308;7.336;2022-07-22T22:30:54;14.02;;;12.82;;
12288;SDS011;6207;49.308;7.336;2022-07-22T22:33:21;14.32;;;13.18;;
12288;SDS011;6207;49.308;7.336;2022-07-22T22:35:47;14.25;;;13.18;;
12288;SDS011;6207;49.308;7.336;2022-07-22T22:38:14;13.75;;;12.77;;
12288;SDS011;6207;49.308;7.336;2022-07-22T22:40:41;15.32;;;13.98;;
12288;SDS011;6207;49.308;7.336;2022-07-22T22:43:08;13.90;;;12.80;;
12288;SDS011;6207;49.308;7.336;2022-07-22T22:45:34;13.00;;;12.00;;
12288;SDS011;6207;49.308;7.336;2022-07-22T22:48:02;12.55;;;11.68;;
12288;SDS011;6207;49.308;7.336;2022-07-22T22:50:29;12.60;;;11.65;;
12288;SDS011;6207;49.308;7.336;2022-07-22T22:52:56;13.13;;;12.10;;
12288;SDS011;6207;49.308;7.336;2022-07-22T22:55:22;13.48;;;12.27;;
12288;SDS011;6207;49.308;7.336;2022-07-22T22:57:49;12.70;;;11.70;;
12288;SDS011;6207;49.308;7.336;2022-07-22T23:00:16;13.30;;;12.20;;
12288;SDS011;6207;49.308;7.336;2022-07-22T23:02:43;13.25;;;12.13;;
12288;SDS011;6207;49.308;7.336;2022-07-22T23:05:10;13.73;;;12.38;;
12288;SDS011;6207;49.308;7.336;2022-07-22T23:07:37;13.00;;;11.82;;
12288;SDS011;6207;49.308;7.336;2022-07-22T23:10:04;14.02;;;12.73;;
12288;SDS011;6207;49.308;7.336;2022-07-22T23:12:31;13.68;;;12.57;;
12288;SDS011;6207;49.308;7.336;2022-07-22T23:14:58;13.63;;;12.52;;
12288;SDS011;6207;49.308;7.336;2022-07-22T23:17:25;13.18;;;12.02;;
12288;SDS011;6207;49.308;7.336;2022-07-22T23:19:52;13.18;;;12.18;;
12288;SDS011;6207;49.308;7.336;2022-07-22T23:22:21;13.05;;;11.90;;
12288;SDS011;6207;49.308;7.336;2022-07-22T23:24:49;13.32;;;12.32;;
12288;SDS011;6207;49.308;7.336;2022-07-22T23:27:16;13.80;;;12.80;;
12288;SDS011;6207;49.308;7.336;2022-07-22T23:29:43;12.45;;;11.65;;
12288;SDS011;6207;49.308;7.336;2022-07-22T23:32:10;12.73;;;11.73;;
12288;SDS011;6207;49.308;7.336;2022-07-22T23:34:37;13.20;;;12.10;;
12288;SDS011;6207;49.308;7.336;2022-07-22T23:37:03;13.05;;;12.07;;
12288;SDS011;6207;49.308;7.336;2022-07-22T23:39:31;12.55;;;11.68;;
12288;SDS011;6207;49.308;7.336;2022-07-22T23:41:57;12.95;;;12.05;;
12288;SDS011;6207;49.308;7.336;2022-07-22T23:44:28;12.75;;;11.80;;
12288;SDS011;6207;49.308;7.336;2022-07-22T23:46:55;12.45;;;11.45;;
12288;SDS011;6207;49.308;7.336;2022-07-22T23:49:22;12.82;;;11.82;;
12288;SDS011;6207;49.308;7.336;2022-07-22T23:51:49;12.90;;;11.73;;
12288;SDS011;6207;49.308;7.336;2022-07-22T23:54:16;12.63;;;11.82;;
12288;SDS011;6207;49.308;7.336;2022-07-22T23:56:42;12.68;;;11.68;;
12288;SDS011;6207;49.308;7.336;2022-07-22T23:59:09;13.70;;;12.43;;
